createdAt,value
2022-10-25T07:46:04.290Z,29.67
2022-10-25T07:47:07.957Z,28.25
2022-10-25T07:48:12.378Z,30.20
2022-10-25T07:49:15.488Z,29.77
2022-10-25T07:50:22.032Z,31.12
2022-10-25T07:51:24.766Z,28.70
2022-10-25T07:52:27.806Z,30.27
2022-10-25T07:53:30.744Z,32.95
2022-10-25T07:54:33.567Z,51.17
2022-10-25T07:55:36.518Z,34.22
2022-10-25T07:56:39.144Z,28.93
2022-10-25T07:57:42.076Z,31.02
2022-10-25T07:58:44.696Z,28.70
2022-10-25T07:59:47.396Z,31.23
2022-10-25T08:00:50.161Z,31.10
2022-10-25T08:01:53.254Z,30.85
2022-10-25T08:02:56.791Z,35.08
2022-10-25T08:03:59.443Z,33.90
2022-10-25T08:05:02.267Z,35.20
2022-10-25T08:06:05.205Z,43.05
2022-10-25T08:07:08.308Z,37.37
2022-10-25T08:08:11.697Z,35.78
2022-10-25T08:09:20.348Z,40.25
2022-10-25T08:10:36.040Z,33.28
2022-10-25T08:11:38.670Z,37.60
2022-10-25T08:12:41.604Z,32.75
2022-10-25T08:13:44.466Z,34.05
2022-10-25T08:14:48.984Z,34.10
2022-10-25T08:15:53.967Z,42.17
2022-10-25T08:16:56.590Z,38.92
2022-10-25T08:18:00.979Z,34.47
2022-10-25T08:19:03.650Z,34.03
2022-10-25T08:20:06.613Z,33.03
2022-10-25T08:21:09.261Z,33.67
2022-10-25T08:22:11.854Z,34.35
2022-10-25T08:23:15.043Z,31.65
2022-10-25T08:24:17.679Z,39.17
2022-10-25T08:25:22.477Z,41.50
2022-10-25T08:26:30.177Z,41.40
2022-10-25T08:27:34.524Z,36.70
2022-10-25T08:28:37.400Z,33.37
2022-10-25T08:29:40.140Z,30.80
2022-10-25T08:30:43.073Z,31.10
2022-10-25T08:31:51.692Z,33.08
2022-10-25T08:32:54.323Z,31.62
2022-10-25T08:33:57.298Z,30.52
2022-10-25T08:34:59.969Z,27.27
2022-10-25T08:36:03.310Z,31.65
2022-10-25T08:37:06.075Z,32.53
2022-10-25T08:38:08.718Z,28.83
2022-10-25T08:39:11.589Z,31.37
2022-10-25T08:40:19.487Z,27.48
2022-10-25T08:41:44.251Z,31.45
2022-10-25T08:43:14.521Z,27.73
2022-10-25T08:44:42.168Z,31.12
2022-10-25T08:45:54.094Z,28.45
2022-10-25T08:46:57.266Z,28.62
2022-10-25T08:48:02.095Z,34.05
2022-10-25T08:49:10.591Z,26.17
2022-10-25T08:50:19.603Z,28.23
2022-10-25T08:51:29.825Z,32.30
2022-10-25T08:52:32.417Z,27.52
2022-10-25T08:53:41.757Z,28.65
2022-10-25T08:54:45.213Z,29.60
2022-10-25T08:56:05.108Z,31.25
2022-10-25T08:57:16.498Z,28.50
2022-10-25T08:58:35.827Z,28.08
2022-10-25T08:59:43.000Z,30.40
2022-10-25T09:00:48.615Z,31.23
2022-10-25T09:02:00.112Z,29.63
2022-10-25T09:03:04.257Z,29.13
2022-10-25T09:04:07.009Z,33.47
2022-10-25T09:05:43.113Z,31.65
2022-10-25T09:07:09.700Z,32.03
2022-10-25T09:08:15.392Z,28.80
2022-10-25T09:09:39.282Z,33.35
2022-10-25T09:10:55.133Z,32.90
2022-10-25T09:12:38.774Z,30.17
2022-10-25T09:14:06.544Z,31.33
2022-10-25T09:15:20.219Z,27.15
2022-10-25T09:16:35.172Z,28.53
2022-10-25T09:17:54.469Z,28.73
2022-10-25T09:18:57.753Z,29.40
2022-10-25T09:20:10.843Z,32.75
2022-10-25T09:21:22.592Z,26.15
2022-10-25T09:22:29.300Z,28.52
2022-10-25T09:23:32.668Z,30.58
2022-10-25T09:24:56.894Z,29.80
2022-10-25T09:26:11.776Z,26.98
2022-10-25T09:27:21.423Z,27.35
2022-10-25T09:28:58.091Z,29.43
2022-10-25T09:30:07.400Z,29.00
2022-10-25T09:31:16.456Z,29.20
2022-10-25T09:32:46.020Z,27.08
2022-10-25T09:33:51.729Z,28.10
2022-10-25T09:34:54.865Z,27.92
2022-10-25T09:35:59.155Z,29.70
2022-10-25T09:37:48.792Z,26.98
2022-10-25T09:38:59.191Z,26.92
2022-10-25T09:40:10.334Z,25.80
2022-10-25T09:41:24.987Z,29.87
2022-10-25T09:42:34.571Z,28.08
2022-10-25T09:43:42.968Z,25.08
2022-10-25T09:44:52.145Z,28.75
2022-10-25T09:45:59.841Z,27.13
2022-10-25T09:47:08.276Z,29.73
2022-10-25T09:48:29.633Z,26.45
2022-10-25T09:49:40.969Z,29.05
2022-10-25T09:51:20.699Z,28.38
2022-10-25T09:52:47.374Z,26.52
2022-10-25T09:53:51.830Z,25.53
2022-10-25T09:55:26.868Z,28.08
2022-10-25T09:56:30.102Z,30.27
2022-10-25T09:57:33.351Z,32.40
2022-10-25T09:58:40.335Z,29.70
2022-10-25T09:59:45.929Z,26.50
2022-10-25T10:00:51.633Z,25.85
2022-10-25T10:01:55.021Z,28.85
2022-10-25T10:02:58.051Z,28.45
2022-10-25T10:04:24.868Z,24.70
2022-10-25T10:05:28.019Z,25.20
2022-10-25T10:06:37.822Z,25.40
2022-10-25T10:07:41.835Z,25.45
2022-10-25T10:08:57.491Z,25.00
2022-10-25T10:10:03.765Z,22.83
2022-10-25T10:11:14.583Z,25.70
2022-10-25T10:12:32.504Z,25.62
2022-10-25T10:13:49.861Z,25.85
2022-10-25T10:15:01.513Z,41.10
2022-10-25T10:16:17.888Z,25.77
2022-10-25T10:17:23.164Z,26.57
2022-10-25T10:18:34.874Z,27.92
2022-10-25T10:19:37.814Z,25.40
2022-10-25T10:20:55.326Z,28.10
2022-10-25T10:21:59.759Z,25.17
2022-10-25T10:23:04.963Z,24.75
2022-10-25T10:24:23.373Z,24.87
2022-10-25T10:25:28.210Z,25.02
2022-10-25T10:26:43.374Z,25.50
2022-10-25T10:27:48.605Z,29.52
2022-10-25T10:29:05.318Z,26.03
2022-10-25T10:30:26.935Z,26.77
2022-10-25T10:31:42.697Z,27.23
2022-10-25T10:32:45.333Z,28.73
2022-10-25T10:33:52.046Z,26.85
2022-10-25T10:34:57.666Z,24.50
2022-10-25T10:36:33.783Z,24.33
2022-10-25T10:37:38.004Z,32.08
2022-10-25T10:38:40.756Z,26.98
2022-10-25T10:39:50.672Z,26.00
2022-10-25T10:41:13.768Z,26.33
2022-10-25T10:42:19.388Z,25.12
2022-10-25T10:43:34.080Z,27.95
2022-10-25T10:44:36.850Z,39.33
2022-10-25T10:45:50.902Z,36.63
2022-10-25T10:46:55.676Z,39.85
2022-10-25T10:48:00.144Z,35.33
2022-10-25T10:49:03.317Z,30.37
2022-10-25T10:50:20.896Z,33.78
2022-10-25T10:51:44.685Z,25.97
2022-10-25T10:52:56.652Z,27.43
2022-10-25T10:54:20.781Z,26.08
2022-10-25T10:55:29.899Z,25.65
2022-10-25T10:56:33.468Z,24.17
2022-10-25T10:57:46.752Z,24.80
2022-10-25T10:58:53.695Z,30.95
2022-10-25T10:59:58.136Z,32.13
2022-10-25T11:01:07.792Z,28.75
2022-10-25T11:02:21.089Z,30.23
2022-10-25T11:03:53.602Z,29.05
2022-10-25T11:05:02.067Z,29.27
2022-10-25T11:06:15.873Z,27.87
2022-10-25T11:07:36.601Z,25.30
2022-10-25T11:08:41.248Z,27.20
2022-10-25T11:09:44.330Z,26.35
2022-10-25T11:10:47.323Z,29.17
2022-10-25T11:12:10.961Z,26.60
2022-10-25T11:13:18.963Z,24.52
2022-10-25T11:14:22.036Z,23.70
2022-10-25T11:15:25.232Z,23.92
2022-10-25T11:16:55.450Z,24.43
2022-10-25T11:18:03.923Z,27.13
2022-10-25T11:19:35.386Z,23.87
2022-10-25T11:20:58.653Z,25.67
2022-10-25T11:22:32.073Z,29.60
2022-10-25T11:24:06.250Z,30.60
2022-10-25T11:25:31.335Z,27.65
2022-10-25T11:27:07.620Z,30.95
2022-10-25T11:28:26.189Z,29.35
2022-10-25T11:29:41.754Z,27.47
2022-10-25T11:30:56.453Z,27.33
2022-10-25T11:32:26.069Z,28.73
2022-10-25T11:33:44.936Z,30.92
2022-10-25T11:34:50.811Z,41.42
2022-10-25T11:35:59.733Z,40.72
2022-10-25T11:37:28.475Z,29.77
2022-10-25T11:38:40.033Z,32.75
2022-10-25T11:40:08.525Z,33.65
2022-10-25T11:41:40.872Z,33.50
2022-10-25T11:43:10.251Z,31.95
2022-10-25T11:44:43.004Z,32.57
2022-10-25T11:45:58.664Z,34.72
2022-10-25T11:47:27.554Z,32.95
2022-10-25T11:48:48.517Z,35.88
2022-10-25T11:50:03.596Z,33.38
2022-10-25T11:51:21.096Z,31.92
2022-10-25T11:52:38.947Z,35.63
2022-10-25T11:54:29.667Z,34.90
2022-10-25T11:55:41.078Z,36.05
2022-10-25T11:56:56.064Z,45.40
2022-10-25T11:58:40.984Z,34.97
2022-10-25T12:00:20.291Z,37.50
2022-10-25T12:01:29.457Z,41.55
2022-10-25T12:02:42.895Z,42.13
2022-10-25T12:03:57.730Z,41.85
2022-10-25T12:05:19.021Z,41.60
2022-10-25T12:06:45.757Z,40.92
2022-10-25T12:08:09.817Z,37.53
2022-10-25T12:09:53.311Z,51.60
2022-10-25T12:11:07.233Z,40.22
2022-10-25T12:12:16.590Z,38.40
2022-10-25T12:13:39.132Z,44.03
2022-10-25T12:14:46.691Z,46.65
2022-10-25T12:15:52.326Z,35.83
2022-10-25T12:16:57.908Z,33.80
2022-10-25T12:18:00.986Z,37.92
2022-10-25T12:19:23.168Z,40.08
2022-10-25T12:20:29.048Z,38.03
2022-10-25T12:21:59.298Z,39.35
2022-10-25T12:23:13.088Z,38.58
2022-10-25T12:24:21.355Z,36.43
2022-10-25T12:25:40.280Z,42.78
2022-10-25T12:26:43.882Z,42.75
2022-10-25T12:27:54.459Z,41.88
2022-10-25T12:29:02.759Z,38.15
2022-10-25T12:30:14.260Z,45.67
2022-10-25T12:31:19.319Z,45.53
2022-10-25T12:32:29.148Z,46.17
2022-10-25T12:33:39.187Z,45.58
2022-10-25T12:34:47.161Z,47.38
2022-10-25T12:35:53.476Z,51.77
2022-10-25T12:37:03.222Z,45.42
2022-10-25T12:38:12.475Z,45.65
2022-10-25T12:39:40.107Z,39.58
2022-10-25T12:40:47.814Z,40.42
2022-10-25T12:41:58.043Z,43.50
2022-10-25T12:43:13.281Z,37.97
2022-10-25T12:45:00.522Z,43.17
2022-10-25T12:46:06.267Z,40.08
2022-10-25T12:47:24.446Z,36.08
2022-10-25T12:48:42.414Z,37.97
2022-10-25T12:50:02.301Z,36.97
2022-10-25T12:51:26.551Z,39.75
2022-10-25T12:52:39.981Z,36.75
2022-10-25T12:54:03.985Z,54.42
2022-10-25T12:55:25.307Z,36.92
2022-10-25T12:56:39.550Z,47.17
2022-10-25T12:58:02.709Z,38.63
2022-10-25T12:59:20.624Z,52.20
2022-10-25T13:00:24.219Z,46.13
2022-10-25T13:01:32.509Z,45.27
2022-10-25T13:02:50.533Z,31.20
2022-10-25T13:04:23.738Z,38.40
2022-10-25T13:05:45.181Z,30.27
2022-10-25T13:06:50.804Z,31.95
2022-10-25T13:07:58.949Z,31.42
2022-10-25T13:09:07.532Z,31.83
2022-10-25T13:10:20.125Z,39.70
2022-10-25T13:11:33.603Z,32.38
2022-10-25T13:12:36.318Z,32.08
2022-10-25T13:13:51.286Z,34.37
2022-10-25T13:14:56.294Z,37.63
2022-10-25T13:16:01.630Z,33.22
2022-10-25T13:17:16.147Z,38.83
2022-10-25T13:18:48.080Z,44.30
2022-10-25T13:19:54.856Z,35.22
2022-10-25T13:20:59.453Z,33.90
2022-10-25T13:22:09.899Z,85.32
2022-10-25T13:23:45.863Z,99.50
2022-10-25T13:24:48.535Z,216.88
2022-10-25T13:25:51.035Z,95.73
2022-10-25T13:27:12.851Z,78.35
2022-10-25T13:28:16.025Z,40.58
2022-10-25T13:29:43.609Z,36.50
2022-10-25T13:30:46.329Z,31.58
2022-10-25T13:32:07.666Z,31.02
2022-10-25T13:33:22.687Z,31.98
2022-10-25T13:34:45.067Z,30.10
2022-10-25T13:35:49.894Z,30.00
2022-10-25T13:37:00.841Z,33.40
2022-10-25T13:38:09.380Z,36.13
2022-10-25T13:39:18.304Z,40.03
2022-10-25T13:40:27.511Z,58.45
2022-10-25T13:41:45.376Z,56.85
2022-10-25T13:42:57.471Z,47.30
2022-10-25T13:44:01.803Z,41.28
2022-10-25T13:45:04.691Z,39.88
2022-10-25T13:46:13.713Z,39.17
2022-10-25T13:47:37.048Z,34.28
2022-10-25T13:48:41.037Z,32.22
2022-10-25T13:49:48.159Z,33.83
2022-10-25T13:51:08.117Z,26.27
2022-10-25T13:52:29.274Z,28.12
2022-10-25T13:53:55.504Z,26.40
2022-10-25T13:54:59.985Z,30.37
2022-10-25T13:56:09.001Z,30.65
2022-10-25T13:57:46.506Z,27.83
2022-10-25T13:58:51.608Z,56.95
2022-10-25T14:00:02.205Z,35.15
2022-10-25T14:01:15.089Z,34.58
2022-10-25T14:02:23.234Z,36.00
2022-10-25T14:03:49.983Z,32.08
2022-10-25T14:04:53.208Z,30.75
2022-10-25T14:05:56.066Z,26.60
2022-10-25T14:07:37.522Z,26.27
2022-10-25T14:09:08.885Z,27.98
2022-10-25T14:10:25.439Z,24.98
2022-10-25T14:11:35.681Z,47.50
2022-10-25T14:12:43.191Z,79.80
2022-10-25T14:14:07.297Z,55.65
2022-10-25T14:15:38.243Z,41.97
2022-10-25T14:16:55.967Z,74.90
2022-10-25T14:17:59.576Z,37.60
2022-10-25T14:19:11.920Z,43.45
2022-10-25T14:20:28.530Z,38.20
2022-10-25T14:21:32.616Z,31.87
2022-10-25T14:22:42.279Z,34.53
2022-10-25T14:23:49.533Z,28.10
2022-10-25T14:24:54.561Z,30.62
2022-10-25T14:26:02.289Z,33.50
2022-10-25T14:27:04.962Z,38.63
2022-10-25T14:28:16.594Z,34.28
2022-10-25T14:29:21.729Z,35.25
2022-10-25T14:30:26.950Z,34.35
2022-10-25T14:31:29.699Z,34.05
2022-10-25T14:32:32.593Z,31.40
2022-10-25T14:33:45.946Z,31.62
2022-10-25T14:34:51.323Z,33.58
2022-10-25T14:36:07.740Z,34.45
2022-10-25T14:37:15.043Z,76.00
2022-10-25T14:38:21.730Z,79.27
2022-10-25T14:39:28.135Z,68.78
2022-10-25T14:40:31.649Z,49.05
2022-10-25T14:41:36.215Z,41.65
2022-10-25T14:42:38.888Z,42.60
2022-10-25T14:43:42.349Z,40.42
2022-10-25T14:44:47.554Z,42.67
2022-10-25T14:46:02.840Z,44.70
2022-10-25T14:47:06.042Z,46.22
2022-10-25T14:48:10.305Z,45.92
2022-10-25T14:49:13.021Z,48.13
2022-10-25T14:50:21.572Z,50.92
2022-10-25T14:51:30.887Z,50.30
2022-10-25T14:52:33.926Z,50.92
2022-10-25T14:53:48.207Z,45.58
2022-10-25T14:55:04.435Z,41.88
2022-10-25T14:56:31.260Z,40.80
2022-10-25T14:57:36.324Z,36.20
2022-10-25T14:58:43.007Z,37.03
2022-10-25T14:59:50.827Z,39.05
2022-10-25T15:01:00.873Z,54.77
2022-10-25T15:02:13.863Z,127.97
2022-10-25T15:03:19.249Z,54.10
2022-10-25T15:04:33.545Z,74.30
2022-10-25T15:05:41.669Z,111.80
2022-10-25T15:06:48.475Z,154.63
2022-10-25T15:08:00.585Z,69.68
2022-10-25T15:09:40.677Z,58.22
2022-10-25T15:10:34.842Z,56.65
2022-10-25T15:11:38.177Z,41.10
2022-10-25T15:12:51.309Z,52.83
2022-10-25T15:13:54.617Z,47.30
2022-10-25T15:15:19.142Z,51.35
2022-10-25T15:16:44.192Z,53.10
2022-10-25T15:17:53.568Z,53.55
2022-10-25T15:19:23.370Z,67.97
2022-10-25T15:20:29.159Z,66.55
2022-10-25T15:21:47.534Z,67.95
2022-10-25T15:22:50.994Z,58.05
2022-10-25T15:24:14.501Z,55.53
2022-10-25T15:25:17.704Z,47.17
2022-10-25T15:26:28.438Z,42.45
2022-10-25T15:27:37.332Z,45.05
2022-10-25T15:29:01.561Z,40.22
2022-10-25T15:30:05.196Z,44.60
2022-10-25T15:31:14.780Z,49.63
2022-10-25T15:32:22.998Z,57.03
2022-10-25T15:33:31.106Z,51.88
2022-10-25T15:34:34.741Z,53.60
2022-10-25T15:35:48.351Z,55.83
2022-10-25T15:36:51.158Z,118.53
2022-10-25T15:37:56.348Z,69.45
2022-10-25T15:39:12.895Z,58.45
2022-10-25T15:40:20.059Z,47.80
2022-10-25T15:41:22.860Z,54.45
2022-10-25T15:42:27.624Z,46.15
2022-10-25T15:43:30.890Z,51.88
2022-10-25T15:44:35.580Z,63.08
2022-10-25T15:45:39.879Z,75.50
2022-10-25T15:46:43.804Z,83.82
2022-10-25T15:47:47.656Z,86.27
2022-10-25T15:48:50.713Z,84.93
2022-10-25T15:49:54.067Z,104.53
2022-10-25T15:50:58.329Z,85.35
2022-10-25T15:52:01.420Z,67.75
2022-10-25T15:53:06.349Z,60.97
2022-10-25T15:54:16.901Z,74.28
2022-10-25T15:55:21.085Z,99.47
2022-10-25T15:56:23.801Z,93.15
2022-10-25T15:57:27.482Z,80.73
2022-10-25T15:58:30.199Z,77.17
2022-10-25T15:59:33.546Z,70.30
2022-10-25T16:00:36.683Z,68.65
2022-10-25T16:01:45.975Z,68.07
2022-10-25T16:03:11.667Z,67.62
2022-10-25T16:04:16.684Z,54.58
2022-10-25T16:05:31.219Z,60.28
2022-10-25T16:06:34.064Z,56.92
2022-10-25T16:07:37.056Z,54.70
2022-10-25T16:08:48.317Z,53.17
2022-10-25T16:10:03.477Z,60.40
2022-10-25T16:11:26.081Z,68.35
2022-10-25T16:13:10.313Z,64.07
2022-10-25T16:14:25.393Z,64.15
2022-10-25T16:15:28.211Z,68.95
2022-10-25T16:16:46.615Z,63.90
2022-10-25T16:17:49.359Z,69.05
2022-10-25T16:18:53.837Z,71.10
2022-10-25T16:19:57.735Z,65.43
2022-10-25T16:21:00.480Z,64.40
2022-10-25T16:22:05.427Z,67.00
2022-10-25T16:23:08.034Z,69.68
2022-10-25T16:24:11.756Z,81.07
2022-10-25T16:25:15.495Z,83.65
2022-10-25T16:26:46.346Z,81.18
2022-10-25T16:27:49.478Z,72.60
2022-10-25T16:28:52.166Z,66.40
2022-10-25T16:29:54.989Z,55.25
2022-10-25T16:30:58.181Z,55.58
2022-10-25T16:32:01.169Z,46.70
2022-10-25T16:33:04.105Z,49.17
2022-10-25T16:34:06.788Z,47.60
2022-10-25T16:35:11.085Z,47.65
2022-10-25T16:36:14.744Z,48.50
2022-10-25T16:37:18.558Z,45.83
2022-10-25T16:38:21.843Z,47.92
2022-10-25T16:41:33.581Z,62.58
2022-10-25T16:42:39.181Z,64.18
2022-10-25T16:43:45.748Z,63.42
2022-10-25T16:44:51.883Z,61.97
2022-10-25T16:45:55.163Z,62.20
2022-10-25T16:47:00.048Z,58.90
2022-10-25T16:49:12.696Z,77.10
2022-10-25T16:50:23.114Z,137.65
2022-10-25T16:51:26.635Z,193.75
2022-10-25T16:52:29.892Z,168.70
2022-10-25T16:53:33.890Z,131.35
2022-10-25T16:54:37.112Z,114.97
2022-10-25T16:55:40.545Z,103.77
2022-10-25T16:56:43.995Z,92.20
2022-10-25T16:58:55.656Z,88.65
2022-10-25T17:00:02.796Z,99.40
2022-10-25T17:01:20.422Z,96.68
2022-10-25T17:02:27.398Z,102.47
2022-10-25T17:03:31.178Z,104.85
2022-10-25T17:04:34.757Z,105.93
2022-10-25T17:05:39.901Z,98.10
2022-10-25T17:06:43.819Z,102.30
2022-10-25T17:07:48.165Z,91.45
2022-10-25T17:08:51.857Z,93.00
2022-10-25T17:09:56.505Z,102.18
2022-10-25T17:11:00.813Z,107.32
2022-10-25T17:12:04.569Z,96.25
2022-10-25T17:13:16.147Z,94.70
2022-10-25T17:14:19.487Z,83.93
2022-10-25T17:15:24.114Z,88.65
2022-10-25T17:16:28.558Z,101.97
2022-10-25T17:17:31.898Z,100.60
2022-10-25T17:18:36.724Z,92.37
2022-10-25T17:19:40.837Z,91.75
2022-10-25T17:20:48.209Z,89.35
2022-10-25T17:21:51.912Z,87.55
2022-10-25T17:22:56.767Z,83.32
2022-10-25T17:24:07.031Z,88.32
2022-10-25T17:25:12.171Z,88.72
2022-10-25T17:26:15.970Z,81.15
2022-10-25T17:27:21.781Z,100.03
2022-10-25T17:28:25.210Z,95.97
2022-10-25T17:29:28.523Z,88.07
2022-10-25T17:30:32.754Z,81.28
2022-10-25T17:31:38.185Z,77.00
2022-10-25T17:32:41.696Z,69.15
2022-10-25T17:33:45.262Z,70.57
2022-10-25T17:34:48.811Z,72.12
2022-10-25T17:35:53.794Z,75.32
2022-10-25T17:36:58.987Z,74.75
2022-10-25T17:38:02.663Z,75.07
2022-10-25T17:39:10.532Z,83.67
2022-10-25T17:40:15.163Z,81.07
2022-10-25T17:41:18.918Z,79.60
2022-10-25T17:42:23.508Z,78.40
2022-10-25T17:43:28.144Z,73.07
2022-10-25T17:44:32.752Z,81.60
2022-10-25T17:45:36.509Z,77.47
2022-10-25T17:46:40.140Z,70.28
2022-10-25T17:47:44.396Z,66.85
2022-10-25T17:48:49.021Z,72.40
2022-10-25T17:49:54.887Z,64.23
2022-10-25T17:51:05.417Z,74.72
2022-10-25T17:52:11.260Z,91.55
2022-10-25T17:53:16.350Z,74.55
2022-10-25T17:54:20.187Z,111.68
2022-10-25T17:55:32.274Z,73.22
2022-10-25T17:56:37.189Z,57.42
2022-10-25T17:57:40.973Z,60.20
2022-10-25T17:58:47.166Z,74.18
2022-10-25T17:59:50.668Z,72.10
2022-10-25T18:00:54.725Z,96.03
2022-10-25T18:01:59.961Z,108.60
2022-10-25T18:03:04.621Z,81.90
2022-10-25T18:04:11.731Z,109.10
2022-10-25T18:05:20.194Z,99.53
2022-10-25T18:06:25.911Z,107.20
2022-10-25T18:07:32.692Z,72.53
2022-10-25T18:08:39.230Z,65.82
2022-10-25T18:09:43.124Z,75.55
2022-10-25T18:10:47.550Z,71.63
2022-10-25T18:11:51.464Z,64.97
2022-10-25T18:12:55.949Z,72.65
2022-10-25T18:14:02.112Z,95.72
2022-10-25T18:15:09.394Z,107.55
2022-10-25T18:16:14.289Z,159.30
2022-10-25T18:17:19.020Z,108.25
2022-10-25T18:18:23.854Z,168.00
2022-10-25T18:19:29.186Z,188.25
2022-10-25T18:20:33.124Z,262.63
2022-10-25T18:21:38.527Z,254.95
2022-10-25T18:22:42.085Z,192.17
2022-10-25T18:24:01.285Z,305.52
2022-10-25T18:25:05.624Z,208.60
2022-10-25T18:26:13.186Z,251.35
2022-10-25T18:27:18.960Z,233.38
2022-10-25T18:28:23.764Z,251.70
2022-10-25T18:29:28.966Z,191.48
2022-10-25T18:30:34.465Z,204.18
2022-10-25T18:31:39.227Z,274.30
2022-10-25T18:32:44.354Z,285.10
2022-10-25T18:33:48.996Z,250.23
2022-10-25T18:34:52.892Z,186.93
2022-10-25T18:36:01.833Z,289.27
2022-10-25T18:37:06.137Z,348.38
2022-10-25T18:38:09.907Z,361.85
2022-10-25T18:39:20.330Z,308.98
2022-10-25T18:40:25.952Z,309.27
2022-10-25T18:41:34.158Z,292.75
2022-10-25T18:42:38.650Z,272.25
2022-10-25T18:43:43.914Z,225.68
2022-10-25T18:44:47.777Z,351.20
2022-10-25T18:45:59.177Z,227.93
2022-10-25T18:47:03.354Z,187.48
2022-10-25T18:48:09.951Z,184.23
2022-10-25T18:49:16.686Z,159.05
2022-10-25T18:50:21.141Z,140.43
2022-10-25T18:51:29.013Z,167.02
2022-10-25T18:52:33.439Z,176.85
2022-10-25T18:53:39.066Z,183.43
2022-10-25T18:54:46.274Z,209.45
2022-10-25T18:55:53.798Z,205.60
2022-10-25T18:56:58.020Z,161.20
2022-10-25T18:58:04.816Z,161.48
2022-10-25T18:59:10.713Z,180.98
2022-10-25T19:00:15.217Z,171.62
2022-10-25T19:01:22.776Z,168.43
2022-10-25T19:02:31.072Z,167.48
2022-10-25T19:03:39.934Z,175.07
2022-10-25T19:04:43.938Z,186.05
2022-10-25T19:05:50.248Z,194.67
2022-10-25T19:06:54.018Z,164.73
2022-10-25T19:07:58.793Z,170.27
2022-10-25T19:09:03.443Z,153.77
2022-10-25T19:10:08.394Z,113.90
2022-10-25T19:11:14.088Z,130.12
2022-10-25T19:12:17.871Z,163.70
2022-10-25T19:13:23.006Z,150.60
2022-10-25T19:14:29.626Z,141.23
2022-10-25T19:15:34.162Z,145.95
2022-10-25T19:16:41.231Z,144.53
2022-10-25T19:17:45.021Z,152.33
2022-10-25T19:19:03.591Z,158.27
2022-10-25T19:20:08.097Z,147.85
2022-10-25T19:21:14.339Z,201.48
2022-10-25T19:22:19.124Z,161.90
2022-10-25T19:23:24.223Z,143.07
2022-10-25T19:24:29.173Z,219.20
2022-10-25T19:25:33.138Z,164.50
2022-10-25T19:28:57.396Z,102.40
2022-10-25T19:30:01.745Z,119.60
2022-10-25T19:31:09.028Z,145.98
2022-10-25T19:32:12.858Z,94.22
2022-10-25T19:33:19.761Z,95.60
2022-10-25T19:34:25.128Z,90.57
2022-10-25T19:35:35.254Z,94.15
2022-10-25T19:36:40.110Z,95.70
2022-10-25T19:37:43.710Z,114.82
2022-10-25T19:38:55.004Z,79.30
2022-10-25T19:39:59.196Z,84.90
2022-10-25T19:41:09.793Z,67.10
2022-10-25T19:42:14.600Z,85.80
2022-10-25T19:43:24.935Z,81.53
2022-10-25T19:44:29.759Z,146.37
2022-10-25T19:45:33.553Z,229.65
2022-10-25T19:46:38.169Z,205.90
2022-10-25T19:47:42.281Z,166.57
2022-10-25T19:48:46.748Z,138.27
2022-10-25T19:49:53.948Z,166.95
2022-10-25T19:51:03.955Z,461.45
2022-10-25T19:52:07.586Z,328.60
2022-10-25T19:53:19.713Z,210.90
2022-10-25T19:54:25.499Z,187.07
2022-10-25T19:55:28.804Z,166.65
2022-10-25T19:56:34.533Z,145.70
2022-10-25T19:57:38.827Z,181.82
2022-10-25T19:58:42.844Z,171.87
2022-10-25T19:59:46.736Z,106.55
2022-10-25T20:00:50.329Z,154.52
2022-10-25T20:01:55.861Z,175.43
2022-10-25T20:02:59.532Z,167.67
2022-10-25T20:04:03.929Z,147.05
2022-10-25T20:05:09.131Z,177.93
2022-10-25T20:06:21.592Z,160.30
2022-10-25T20:07:28.936Z,157.65
2022-10-25T20:08:34.991Z,137.88
2022-10-25T20:09:39.735Z,120.78
2022-10-25T20:10:43.381Z,117.03
2022-10-25T20:11:46.811Z,99.82
2022-10-25T20:12:50.565Z,115.50
2022-10-25T20:13:59.345Z,83.37
2022-10-25T20:15:03.199Z,75.10
2022-10-25T20:16:09.266Z,72.10
2022-10-25T20:17:13.688Z,91.65
2022-10-25T20:18:20.889Z,103.22
2022-10-25T20:19:24.452Z,94.22
2022-10-25T20:20:28.190Z,76.18
2022-10-25T20:21:35.202Z,112.35
2022-10-25T20:22:38.764Z,117.97
2022-10-25T20:23:49.571Z,119.62
2022-10-25T20:24:53.584Z,159.70
2022-10-25T20:25:57.177Z,130.52
2022-10-25T20:27:02.441Z,140.07
2022-10-25T20:28:06.491Z,123.85
2022-10-25T20:29:18.655Z,129.35
2022-10-25T20:30:24.516Z,127.55
2022-10-25T20:31:30.820Z,126.62
2022-10-25T20:32:34.256Z,94.18
2022-10-25T20:33:39.121Z,166.82
2022-10-25T20:34:43.480Z,91.77
2022-10-25T20:35:49.500Z,99.33
2022-10-25T20:36:53.431Z,121.28
2022-10-25T20:38:03.359Z,80.97
2022-10-25T20:39:08.547Z,89.78
2022-10-25T20:40:12.610Z,78.82
2022-10-25T20:41:18.455Z,71.72
2022-10-25T20:42:21.774Z,73.55
2022-10-25T20:43:26.404Z,56.00
2022-10-25T20:44:29.758Z,63.78
2022-10-25T20:45:34.657Z,61.67
2022-10-25T20:46:38.542Z,72.23
2022-10-25T20:47:41.827Z,98.87
2022-10-25T20:50:52.487Z,98.55
2022-10-25T20:51:56.320Z,105.30
2022-10-25T20:53:09.656Z,90.75
2022-10-25T20:54:13.236Z,110.28
2022-10-25T20:55:16.974Z,98.07
2022-10-25T20:56:21.465Z,116.07
2022-10-25T20:57:24.477Z,95.77
2022-10-25T20:58:27.649Z,86.43
2022-10-25T20:59:45.408Z,99.05
2022-10-25T21:00:49.258Z,72.20
2022-10-25T21:01:52.050Z,83.03
2022-10-25T21:02:55.030Z,54.13
2022-10-25T21:04:21.824Z,97.60
2022-10-25T21:05:33.143Z,56.40
2022-10-25T21:06:36.057Z,84.68
2022-10-25T21:07:38.725Z,86.22
2022-10-25T21:08:41.804Z,117.40
2022-10-25T21:09:49.128Z,145.03
2022-10-25T21:11:02.929Z,124.82
2022-10-25T21:12:05.792Z,144.32
2022-10-25T21:15:13.675Z,116.85
2022-10-25T21:16:17.306Z,118.03
2022-10-25T21:17:20.034Z,124.82
2022-10-25T21:18:27.317Z,101.57
2022-10-25T21:19:30.072Z,102.72
2022-10-25T21:20:32.740Z,110.43
2022-10-25T21:21:35.759Z,90.13
2022-10-25T21:22:41.189Z,87.47
2022-10-25T21:23:44.966Z,77.07
2022-10-25T21:24:47.608Z,118.00
2022-10-25T21:25:57.738Z,65.40
2022-10-25T21:27:00.742Z,137.40
2022-10-25T21:28:03.770Z,144.07
2022-10-25T21:29:07.307Z,126.72
2022-10-25T21:30:10.290Z,89.55
2022-10-25T21:31:14.714Z,107.20
2022-10-25T21:32:17.677Z,111.67
2022-10-25T21:33:20.345Z,47.45
2022-10-25T21:34:23.052Z,63.13
2022-10-25T21:35:25.759Z,79.37
2022-10-25T21:36:28.409Z,86.90
2022-10-25T21:37:31.663Z,42.22
2022-10-25T21:38:34.640Z,63.97
2022-10-25T21:39:37.227Z,53.90
2022-10-25T21:40:39.872Z,62.28
2022-10-25T21:41:42.489Z,78.13
2022-10-25T21:42:45.598Z,76.10
2022-10-25T21:43:49.912Z,47.88
2022-10-25T21:44:52.498Z,48.83
2022-10-25T21:45:59.018Z,69.72
2022-10-25T21:47:01.793Z,59.40
2022-10-25T21:48:04.884Z,72.05
2022-10-25T21:49:07.512Z,80.32
2022-10-25T21:50:10.352Z,71.72
2022-10-25T21:51:33.245Z,55.83
2022-10-25T21:52:36.488Z,134.13
2022-10-25T21:53:39.774Z,111.63
2022-10-25T21:54:42.499Z,150.52
2022-10-25T21:55:45.132Z,143.98
2022-10-25T21:56:48.119Z,157.68
2022-10-25T21:57:54.107Z,160.45
2022-10-25T21:58:58.400Z,268.98
2022-10-25T22:00:00.984Z,236.87
2022-10-25T22:01:07.975Z,254.40
2022-10-25T22:02:11.224Z,178.95
2022-10-25T22:03:13.929Z,145.60
2022-10-25T22:04:16.711Z,225.50
2022-10-25T22:05:19.300Z,157.48
2022-10-25T22:06:42.292Z,209.40
2022-10-25T22:07:45.165Z,92.47
2022-10-25T22:08:48.860Z,114.70
2022-10-25T22:09:51.417Z,184.55
2022-10-25T22:11:07.411Z,103.22
2022-10-25T22:12:10.035Z,150.73
2022-10-25T22:13:12.886Z,172.57
2022-10-25T22:14:18.761Z,137.23
2022-10-25T22:15:21.585Z,105.33
2022-10-25T22:16:39.382Z,169.48
2022-10-25T22:17:42.253Z,162.25
2022-10-25T22:18:51.420Z,154.75
2022-10-25T22:19:54.131Z,129.32
2022-10-25T22:20:59.981Z,109.10
2022-10-25T22:22:02.645Z,106.32
2022-10-25T22:23:05.235Z,148.45
2022-10-25T22:24:09.532Z,131.85
2022-10-25T22:25:12.158Z,123.18
2022-10-25T22:26:16.397Z,115.97
2022-10-25T22:27:18.972Z,154.05
2022-10-25T22:28:21.529Z,130.23
2022-10-25T22:29:24.506Z,133.40
2022-10-25T22:30:27.142Z,132.15
2022-10-25T22:31:50.281Z,126.05
2022-10-25T22:32:53.228Z,117.87
2022-10-25T22:33:58.780Z,127.40
2022-10-25T22:35:01.687Z,99.37
2022-10-25T22:36:21.393Z,66.97
2022-10-25T22:37:23.938Z,83.57
2022-10-25T22:38:28.128Z,59.92
2022-10-25T22:39:30.695Z,73.50